createdAt,value
2022-07-27T00:01:05.827Z,1.95
2022-07-27T00:03:35.395Z,1.60
2022-07-27T00:06:03.585Z,1.45
2022-07-27T00:08:31.697Z,1.58
2022-07-27T00:10:59.756Z,1.10
2022-07-27T00:13:28.316Z,1.60
2022-07-27T00:15:56.427Z,1.10
2022-07-27T00:18:24.577Z,1.17
2022-07-27T00:20:54.208Z,1.40
2022-07-27T00:23:22.339Z,1.13
2022-07-27T00:25:50.402Z,1.55
2022-07-27T00:28:18.627Z,1.40
2022-07-27T00:30:46.802Z,1.30
2022-07-27T00:33:17.314Z,1.70
2022-07-27T00:35:45.875Z,1.88
2022-07-27T00:38:16.545Z,1.27
2022-07-27T00:40:45.160Z,1.40
2022-07-27T00:43:13.487Z,1.30
2022-07-27T00:45:41.764Z,1.50
2022-07-27T00:48:09.774Z,1.55
2022-07-27T00:50:39.073Z,1.35
2022-07-27T00:53:07.093Z,2.45
2022-07-27T00:55:37.072Z,2.03
2022-07-27T00:58:06.012Z,1.55
2022-07-27T01:00:34.049Z,1.77
2022-07-27T01:03:05.675Z,1.80
2022-07-27T01:05:42.649Z,1.85
2022-07-27T01:08:14.101Z,2.78
2022-07-27T01:10:44.914Z,1.73
2022-07-27T01:13:13.517Z,1.88
2022-07-27T01:15:43.138Z,1.80
2022-07-27T01:18:14.792Z,2.10
2022-07-27T01:20:43.603Z,1.73
2022-07-27T01:23:13.023Z,1.85
2022-07-27T01:25:42.911Z,1.63
2022-07-27T01:28:11.004Z,2.28
2022-07-27T01:30:39.090Z,1.80
2022-07-27T01:33:08.873Z,2.42
2022-07-27T01:35:37.671Z,2.38
2022-07-27T01:38:06.729Z,2.50
2022-07-27T01:40:37.456Z,1.83
2022-07-27T01:43:06.087Z,2.05
2022-07-27T01:45:34.228Z,1.95
2022-07-27T01:48:02.457Z,1.85
2022-07-27T01:50:30.933Z,2.00
2022-07-27T01:52:58.954Z,1.83
2022-07-27T01:55:27.005Z,2.30
2022-07-27T01:58:07.130Z,2.15
2022-07-27T02:00:35.809Z,2.05
2022-07-27T02:03:04.578Z,2.00
2022-07-27T02:05:32.670Z,1.80
2022-07-27T02:08:00.718Z,1.95
2022-07-27T02:10:28.889Z,1.92
2022-07-27T02:12:55.975Z,2.00
2022-07-27T02:15:27.927Z,2.17
2022-07-27T02:18:32.743Z,1.92
2022-07-27T02:20:59.084Z,1.55
2022-07-27T02:23:27.294Z,1.63
2022-07-27T02:25:55.433Z,1.67
2022-07-27T02:28:23.387Z,1.60
2022-07-27T02:30:52.908Z,1.33
2022-07-27T02:33:21.101Z,1.95
2022-07-27T02:35:49.734Z,2.20
2022-07-27T02:38:17.716Z,1.50
2022-07-27T02:40:45.738Z,1.30
2022-07-27T02:43:14.032Z,2.00
2022-07-27T02:45:42.052Z,1.77
2022-07-27T02:48:11.498Z,2.03
2022-07-27T02:50:39.566Z,1.98
2022-07-27T02:53:07.539Z,1.95
2022-07-27T02:55:35.634Z,2.10
2022-07-27T02:58:03.706Z,1.65
2022-07-27T03:00:31.911Z,2.22
2022-07-27T03:02:59.919Z,1.48
2022-07-27T03:05:29.349Z,1.98
2022-07-27T03:07:57.396Z,2.00
2022-07-27T03:10:25.428Z,1.92
2022-07-27T03:12:53.377Z,1.45
2022-07-27T03:15:21.377Z,1.90
2022-07-27T03:17:49.409Z,2.05
2022-07-27T03:20:17.403Z,2.10
2022-07-27T03:22:46.826Z,2.13
2022-07-27T03:25:15.021Z,2.58
2022-07-27T03:27:43.043Z,1.92
2022-07-27T03:30:11.977Z,1.85
2022-07-27T03:32:39.947Z,1.90
2022-07-27T03:35:08.831Z,1.77
2022-07-27T03:37:36.847Z,1.40
2022-07-27T03:40:07.384Z,1.75
2022-07-27T03:42:35.477Z,2.00
2022-07-27T03:45:03.518Z,1.88
2022-07-27T03:47:31.625Z,2.05
2022-07-27T03:49:59.608Z,1.85
2022-07-27T03:52:27.713Z,1.90
2022-07-27T03:54:57.173Z,1.92
2022-07-27T03:57:26.614Z,1.52
2022-07-27T03:59:54.574Z,1.90
2022-07-27T04:02:22.645Z,1.98
2022-07-27T04:04:50.727Z,2.60
2022-07-27T04:07:18.742Z,1.77
2022-07-27T04:09:47.242Z,2.20
2022-07-27T04:12:17.420Z,2.30
2022-07-27T04:14:49.605Z,2.07
2022-07-27T04:17:56.120Z,1.60
2022-07-27T04:20:07.674Z,2.10
2022-07-27T04:22:35.724Z,2.00
2022-07-27T04:25:03.993Z,2.20
2022-07-27T04:27:32.039Z,2.42
2022-07-27T04:30:02.757Z,1.92
2022-07-27T04:32:33.693Z,2.05
2022-07-27T04:35:01.733Z,2.40
2022-07-27T04:37:30.228Z,2.38
2022-07-27T04:39:58.736Z,2.10
2022-07-27T04:42:26.993Z,2.38
2022-07-27T04:44:55.059Z,1.80
2022-07-27T04:47:26.910Z,2.40
2022-07-27T04:49:57.949Z,2.17
2022-07-27T04:52:26.838Z,1.90
2022-07-27T04:54:55.755Z,2.20
2022-07-27T04:57:24.095Z,2.47
2022-07-27T04:59:52.170Z,2.90
2022-07-27T05:02:20.441Z,2.45
2022-07-27T05:04:49.839Z,2.10
2022-07-27T05:07:20.812Z,2.15
2022-07-27T05:09:49.054Z,2.20
2022-07-27T05:12:18.420Z,2.28
2022-07-27T05:14:49.568Z,1.77
2022-07-27T05:17:17.817Z,2.60
2022-07-27T05:19:45.985Z,2.78
2022-07-27T05:22:15.496Z,2.00
2022-07-27T05:24:43.614Z,2.67
2022-07-27T05:27:12.180Z,2.60
2022-07-27T05:29:40.562Z,2.05
2022-07-27T05:32:09.632Z,1.90
2022-07-27T05:34:38.051Z,2.10
2022-07-27T05:37:06.050Z,2.22
2022-07-27T05:39:38.907Z,2.10
2022-07-27T05:42:07.224Z,2.30
2022-07-27T05:44:36.921Z,2.08
2022-07-27T05:47:06.237Z,2.38
2022-07-27T05:49:36.554Z,2.58
2022-07-27T05:52:04.576Z,2.28
2022-07-27T05:54:32.574Z,2.10
2022-07-27T05:57:05.238Z,1.95
2022-07-27T05:59:33.509Z,2.78
2022-07-27T06:02:01.705Z,2.15
2022-07-27T06:04:29.719Z,2.83
2022-07-27T06:07:14.970Z,1.70
2022-07-27T06:09:48.504Z,2.22
2022-07-27T06:12:18.432Z,1.92
2022-07-27T06:14:50.831Z,2.13
2022-07-27T06:19:51.450Z,1.77
2022-07-27T06:22:19.588Z,2.15
2022-07-27T06:24:47.630Z,1.77
2022-07-27T06:27:17.030Z,1.85
2022-07-27T06:29:48.196Z,2.03
2022-07-27T06:32:16.677Z,2.30
2022-07-27T06:34:47.126Z,2.08
2022-07-27T06:37:15.825Z,2.38
2022-07-27T06:39:44.214Z,2.20
2022-07-27T06:42:13.973Z,2.10
2022-07-27T06:44:43.447Z,2.40
2022-07-27T06:47:11.542Z,2.22
2022-07-27T06:49:39.602Z,2.33
2022-07-27T06:52:07.644Z,2.55
2022-07-27T06:54:35.947Z,1.58
2022-07-27T06:57:04.325Z,2.38
2022-07-27T06:59:42.752Z,2.60
2022-07-27T07:02:13.214Z,2.65
2022-07-27T07:04:41.190Z,2.35
2022-07-27T07:07:09.230Z,2.35
2022-07-27T07:09:37.338Z,2.30
2022-07-27T07:12:06.211Z,1.95
2022-07-27T07:14:34.398Z,2.78
2022-07-27T07:17:02.681Z,1.98
2022-07-27T07:19:32.035Z,2.47
2022-07-27T07:22:00.163Z,2.15
2022-07-27T07:24:30.046Z,2.50
2022-07-27T07:26:58.349Z,2.03
2022-07-27T07:29:26.468Z,2.30
2022-07-27T07:31:54.718Z,2.50
2022-07-27T07:34:22.938Z,1.88
2022-07-27T07:36:52.619Z,2.22
2022-07-27T07:39:20.661Z,2.30
2022-07-27T07:41:48.796Z,2.38
2022-07-27T07:44:16.833Z,2.50
2022-07-27T07:46:47.178Z,2.20
2022-07-27T07:49:16.093Z,2.45
2022-07-27T07:51:44.531Z,2.33
2022-07-27T07:54:13.958Z,2.25
2022-07-27T07:56:41.987Z,2.50
2022-07-27T07:59:10.380Z,2.42
2022-07-27T08:01:38.758Z,2.78
2022-07-27T08:04:07.079Z,2.83
2022-07-27T08:06:35.270Z,2.58
2022-07-27T08:09:03.405Z,2.20
2022-07-27T08:11:32.979Z,2.33
2022-07-27T08:14:01.003Z,2.10
2022-07-27T08:16:29.085Z,2.10
2022-07-27T08:19:00.320Z,3.15
2022-07-27T08:21:28.844Z,2.28
2022-07-27T08:24:02.863Z,2.40
2022-07-27T08:26:32.551Z,1.80
2022-07-27T08:29:09.095Z,2.40
2022-07-27T08:31:52.274Z,2.30
2022-07-27T08:34:21.247Z,1.88
2022-07-27T08:36:49.385Z,1.77
2022-07-27T08:39:52.583Z,2.40
2022-07-27T08:42:11.175Z,1.63
2022-07-27T08:44:41.025Z,2.10
2022-07-27T08:47:10.740Z,2.35
2022-07-27T08:49:43.499Z,1.90
2022-07-27T08:52:12.855Z,2.00
2022-07-27T08:54:41.948Z,1.92
2022-07-27T08:57:11.743Z,1.98
2022-07-27T08:59:39.795Z,2.10
2022-07-27T09:02:13.920Z,1.67
2022-07-27T09:04:42.451Z,1.88
2022-07-27T09:07:10.523Z,2.10
2022-07-27T09:09:52.013Z,2.60
2022-07-27T09:12:28.624Z,2.03
2022-07-27T09:15:06.446Z,2.42
2022-07-27T09:17:50.521Z,2.28
2022-07-27T09:20:20.239Z,2.10
2022-07-27T09:22:50.899Z,1.80
2022-07-27T09:25:33.080Z,2.17
2022-07-27T09:28:15.592Z,2.15
2022-07-27T09:30:44.392Z,2.35
2022-07-27T09:33:16.777Z,2.05
2022-07-27T09:35:46.253Z,2.20
2022-07-27T09:38:22.018Z,1.90
2022-07-27T09:40:59.147Z,1.80
2022-07-27T09:44:27.727Z,1.70
2022-07-27T09:46:17.375Z,2.50
2022-07-27T09:48:45.766Z,2.15
2022-07-27T09:51:57.535Z,1.50
2022-07-27T09:54:08.425Z,2.00
2022-07-27T09:56:36.986Z,1.38
2022-07-27T09:59:07.167Z,1.35
2022-07-27T10:01:46.748Z,1.60
2022-07-27T10:04:17.522Z,2.33
2022-07-27T10:07:01.627Z,1.80
2022-07-27T10:09:32.001Z,3.05
2022-07-27T10:12:00.538Z,1.73
2022-07-27T10:14:31.135Z,1.95
2022-07-27T10:16:59.469Z,1.88
2022-07-27T10:19:33.049Z,1.95
2022-07-27T10:22:02.405Z,1.83
2022-07-27T10:24:39.229Z,1.42
2022-07-27T10:27:21.535Z,1.60
2022-07-27T10:29:52.165Z,1.83
2022-07-27T10:32:25.584Z,1.90
2022-07-27T10:34:53.598Z,1.60
2022-07-27T10:37:26.872Z,1.55
2022-07-27T10:40:17.036Z,2.05
2022-07-27T10:42:50.399Z,1.55
2022-07-27T10:45:23.871Z,1.33
2022-07-27T10:47:53.599Z,1.98
2022-07-27T10:50:32.253Z,1.30
2022-07-27T10:53:11.211Z,1.45
2022-07-27T10:55:50.456Z,1.55
2022-07-27T10:58:45.274Z,1.40
2022-07-27T11:01:16.228Z,1.80
2022-07-27T11:03:52.352Z,1.30
2022-07-27T11:06:33.207Z,1.65
2022-07-27T11:10:02.559Z,1.30
2022-07-27T11:11:55.855Z,1.70
2022-07-27T11:14:30.978Z,1.25
2022-07-27T11:19:54.839Z,1.02
2022-07-27T11:23:03.165Z,1.13
2022-07-27T11:25:21.682Z,1.10
2022-07-27T11:27:50.856Z,0.70
2022-07-27T11:30:27.115Z,1.45
2022-07-27T11:32:57.548Z,1.52
2022-07-27T11:35:25.798Z,1.00
2022-07-27T11:38:05.454Z,1.25
2022-07-27T11:43:37.704Z,1.40
2022-07-27T11:46:14.442Z,0.90
2022-07-27T11:49:06.446Z,1.13
2022-07-27T11:51:36.214Z,1.38
2022-07-27T11:54:07.035Z,1.13
2022-07-27T11:56:37.199Z,1.35
2022-07-27T11:59:08.784Z,1.42
2022-07-27T12:01:39.817Z,1.00
2022-07-27T12:04:13.927Z,0.95
2022-07-27T12:06:43.866Z,1.10
2022-07-27T12:09:16.250Z,0.90
2022-07-27T12:11:52.087Z,0.90
2022-07-27T12:14:20.715Z,1.05
2022-07-27T12:16:48.955Z,1.30
2022-07-27T12:19:25.444Z,1.38
2022-07-27T12:21:55.479Z,1.30
2022-07-27T12:24:34.453Z,1.17
2022-07-27T12:27:06.617Z,1.33
2022-07-27T12:32:05.680Z,1.00
2022-07-27T12:34:36.697Z,1.17
2022-07-27T12:37:12.788Z,0.98
2022-07-27T12:39:44.200Z,1.05
2022-07-27T12:42:13.278Z,1.20
2022-07-27T12:44:43.966Z,1.50
2022-07-27T12:47:29.305Z,1.20
2022-07-27T12:50:05.469Z,1.00
2022-07-27T12:52:34.257Z,1.20
2022-07-27T12:55:02.738Z,1.55
2022-07-27T12:57:53.910Z,1.40
2022-07-27T13:00:20.809Z,0.93
2022-07-27T13:02:48.980Z,1.30
2022-07-27T13:05:19.537Z,1.50
2022-07-27T13:07:47.834Z,1.60
2022-07-27T13:10:18.787Z,1.58
2022-07-27T13:12:47.999Z,1.63
2022-07-27T13:15:17.387Z,1.10
2022-07-27T13:17:46.678Z,1.10
2022-07-27T13:20:15.934Z,1.25
2022-07-27T13:22:47.019Z,0.85
2022-07-27T13:25:17.509Z,1.65
2022-07-27T13:27:46.972Z,1.45
2022-07-27T13:30:17.118Z,1.23
2022-07-27T13:32:47.008Z,1.50
2022-07-27T13:35:16.855Z,1.00
2022-07-27T13:37:47.035Z,1.48
2022-07-27T13:40:15.942Z,1.20
2022-07-27T13:42:47.449Z,1.48
2022-07-27T13:45:16.081Z,1.25
2022-07-27T13:47:44.524Z,1.30
2022-07-27T13:50:18.883Z,1.58
2022-07-27T13:52:49.771Z,1.45
2022-07-27T13:55:18.682Z,1.45
2022-07-27T13:57:47.868Z,1.40
2022-07-27T14:00:18.793Z,1.20
2022-07-27T14:02:47.324Z,1.05
2022-07-27T14:05:16.190Z,1.40
2022-07-27T14:07:49.798Z,1.35
2022-07-27T14:10:32.883Z,1.38
2022-07-27T14:13:08.069Z,1.08
2022-07-27T14:15:50.805Z,1.27
2022-07-27T14:18:48.736Z,1.35
2022-07-27T14:21:20.138Z,1.40
2022-07-27T14:23:49.774Z,1.15
2022-07-27T14:26:17.987Z,1.05
2022-07-27T14:28:46.780Z,1.33
2022-07-27T14:31:15.212Z,1.35
2022-07-27T14:33:43.280Z,1.40
2022-07-27T14:36:11.461Z,1.30
2022-07-27T14:38:39.570Z,1.40
2022-07-27T14:41:09.191Z,1.80
2022-07-27T14:43:37.292Z,1.65
2022-07-27T14:46:05.383Z,1.40
2022-07-27T14:49:03.363Z,1.20
2022-07-27T14:51:21.303Z,1.02
2022-07-27T14:53:49.372Z,1.05
2022-07-27T14:56:18.934Z,1.17
2022-07-27T14:58:46.915Z,1.38
2022-07-27T15:01:16.827Z,1.02
2022-07-27T15:03:45.729Z,1.23
2022-07-27T15:06:13.824Z,1.10
2022-07-27T15:08:41.999Z,1.90
2022-07-27T15:11:10.980Z,1.05
2022-07-27T15:13:40.595Z,1.40
2022-07-27T15:16:08.700Z,1.45
2022-07-27T15:18:38.794Z,1.40
2022-07-27T15:21:12.974Z,1.13
2022-07-27T15:23:42.906Z,1.20
2022-07-27T15:26:12.514Z,1.23
2022-07-27T15:28:42.763Z,5.22
2022-07-27T15:31:11.317Z,3.30
2022-07-27T15:33:40.004Z,5.25
2022-07-27T15:36:08.323Z,1.30
2022-07-27T15:38:36.463Z,3.85
2022-07-27T15:41:04.699Z,1.20
2022-07-27T15:43:32.867Z,1.85
2022-07-27T15:46:02.793Z,1.67
2022-07-27T15:48:31.125Z,1.38
2022-07-27T15:50:59.482Z,1.08
2022-07-27T15:53:28.730Z,1.52
2022-07-27T15:55:57.262Z,1.30
2022-07-27T15:58:25.677Z,1.40
2022-07-27T16:00:57.668Z,1.92
2022-07-27T16:03:28.131Z,1.05
2022-07-27T16:05:56.842Z,1.23
2022-07-27T16:08:27.175Z,1.38
2022-07-27T16:10:55.400Z,1.52
2022-07-27T16:13:23.961Z,1.58
2022-07-27T16:16:09.904Z,1.23
2022-07-27T16:18:39.596Z,1.38
2022-07-27T16:21:07.732Z,1.80
2022-07-27T16:23:36.218Z,1.52
2022-07-27T16:26:06.049Z,1.50
2022-07-27T16:28:36.299Z,1.30
2022-07-27T16:31:05.867Z,1.02
2022-07-27T16:33:34.286Z,1.40
2022-07-27T16:36:03.943Z,1.25
2022-07-27T16:38:32.178Z,1.50
2022-07-27T16:41:00.565Z,1.90
2022-07-27T16:43:37.208Z,1.92
2022-07-27T16:46:07.347Z,2.05
2022-07-27T16:48:42.815Z,1.90
2022-07-27T16:51:14.524Z,1.80
2022-07-27T16:53:45.469Z,2.13
2022-07-27T16:56:14.559Z,2.65
2022-07-27T16:58:43.500Z,1.48
2022-07-27T17:01:22.490Z,2.17
2022-07-27T17:03:56.189Z,4.50
2022-07-27T17:06:27.289Z,1.98
2022-07-27T17:08:56.391Z,5.22
2022-07-27T17:11:24.990Z,4.72
2022-07-27T17:13:58.274Z,1.48
2022-07-27T17:16:28.433Z,3.17
2022-07-27T17:18:56.824Z,1.50
2022-07-27T17:21:26.946Z,3.20
2022-07-27T17:23:55.066Z,1.45
2022-07-27T17:26:24.811Z,1.70
2022-07-27T17:28:53.240Z,4.57
2022-07-27T17:31:22.164Z,1.15
2022-07-27T17:33:51.232Z,1.48
2022-07-27T17:36:19.627Z,1.30
2022-07-27T17:38:50.838Z,1.88
2022-07-27T17:41:24.582Z,1.48
2022-07-27T17:43:53.429Z,1.40
2022-07-27T17:46:21.935Z,2.20
2022-07-27T17:48:50.091Z,2.30
2022-07-27T17:51:18.390Z,2.05
2022-07-27T17:53:47.985Z,1.40
2022-07-27T17:56:16.104Z,1.73
2022-07-27T17:58:44.185Z,1.42
2022-07-27T18:01:12.270Z,1.63
2022-07-27T18:03:41.135Z,1.50
2022-07-27T18:06:09.309Z,1.50
2022-07-27T18:08:37.502Z,1.95
2022-07-27T18:11:07.355Z,1.77
2022-07-27T18:13:37.897Z,1.60
2022-07-27T18:16:09.124Z,1.50
2022-07-27T18:18:37.897Z,1.98
2022-07-27T18:21:08.494Z,1.88
2022-07-27T18:23:37.196Z,1.23
2022-07-27T18:26:07.063Z,1.40
2022-07-27T18:28:39.506Z,1.23
2022-07-27T18:31:12.443Z,1.50
2022-07-27T18:36:14.184Z,1.55
2022-07-27T18:38:44.890Z,1.45
2022-07-27T18:41:17.415Z,1.52
2022-07-27T18:46:20.398Z,1.92
2022-07-27T18:48:50.528Z,1.83
2022-07-27T18:51:18.992Z,1.50
2022-07-27T18:53:48.824Z,1.80
2022-07-27T18:56:18.657Z,1.90
2022-07-27T18:58:47.541Z,1.60
2022-07-27T19:01:16.006Z,1.40
2022-07-27T19:03:47.242Z,1.80
2022-07-27T19:06:18.677Z,2.33
2022-07-27T19:08:47.286Z,1.90
2022-07-27T19:11:17.497Z,2.05
2022-07-27T19:13:45.787Z,1.80
2022-07-27T19:16:13.941Z,1.30
2022-07-27T19:18:42.497Z,2.30
2022-07-27T19:21:10.472Z,1.48
2022-07-27T19:23:38.642Z,1.80
2022-07-27T19:26:07.071Z,1.63
2022-07-27T19:28:37.924Z,1.80
2022-07-27T19:31:06.273Z,1.75
2022-07-27T19:33:52.127Z,1.58
2022-07-27T19:36:20.799Z,1.45
2022-07-27T19:38:48.775Z,2.17
2022-07-27T19:41:17.315Z,2.00
2022-07-27T19:43:46.943Z,1.70
2022-07-27T19:46:15.441Z,1.58
2022-07-27T19:48:43.528Z,2.28
2022-07-27T19:51:11.810Z,1.52
2022-07-27T19:53:41.074Z,2.05
2022-07-27T19:56:12.336Z,1.60
2022-07-27T19:58:40.443Z,1.65
2022-07-27T20:01:10.430Z,1.45
2022-07-27T20:03:52.515Z,1.35
2022-07-27T20:06:22.752Z,1.80
2022-07-27T20:08:51.079Z,2.45
2022-07-27T20:11:19.222Z,1.50
2022-07-27T20:13:47.202Z,1.60
2022-07-27T20:16:18.009Z,2.22
2022-07-27T20:18:46.322Z,2.00
2022-07-27T20:21:22.534Z,2.03
2022-07-27T20:23:52.048Z,1.60
2022-07-27T20:26:20.638Z,1.85
2022-07-27T20:28:49.909Z,2.00
2022-07-27T20:31:19.680Z,1.70
2022-07-27T20:33:48.080Z,2.20
2022-07-27T20:36:16.325Z,2.10
2022-07-27T20:38:44.472Z,2.78
2022-07-27T20:41:12.556Z,2.50
2022-07-27T20:43:40.759Z,2.35
2022-07-27T20:46:09.241Z,1.92
2022-07-27T20:48:40.087Z,2.10
2022-07-27T20:51:08.850Z,2.28
2022-07-27T20:53:36.877Z,1.98
2022-07-27T20:56:05.189Z,2.30
2022-07-27T20:58:33.280Z,2.00
2022-07-27T21:01:01.735Z,2.33
2022-07-27T21:03:29.757Z,2.03
2022-07-27T21:05:59.188Z,2.83
2022-07-27T21:08:28.679Z,3.25
2022-07-27T21:10:56.816Z,2.88
2022-07-27T21:13:24.877Z,3.60
2022-07-27T21:15:52.950Z,2.72
2022-07-27T21:18:20.931Z,2.83
2022-07-27T21:20:49.009Z,3.08
2022-07-27T21:23:35.699Z,3.38
2022-07-27T21:26:03.669Z,2.78
2022-07-27T21:28:31.746Z,3.17
2022-07-27T21:31:01.530Z,2.75
2022-07-27T21:33:29.837Z,3.15
2022-07-27T21:35:58.042Z,2.72
2022-07-27T21:38:27.383Z,2.65
2022-07-27T21:40:55.536Z,2.75
2022-07-27T21:43:23.699Z,3.45
2022-07-27T21:45:51.800Z,3.15
2022-07-27T21:48:19.832Z,3.10
2022-07-27T21:50:48.077Z,3.03
2022-07-27T21:53:16.554Z,3.00
2022-07-27T21:55:46.299Z,3.47
2022-07-27T21:58:15.459Z,3.58
2022-07-27T22:00:43.663Z,4.05
2022-07-27T22:03:11.807Z,4.13
2022-07-27T22:05:40.308Z,3.22
2022-07-27T22:08:08.368Z,3.17
2022-07-27T22:10:36.700Z,4.07
2022-07-27T22:13:06.431Z,3.15
2022-07-27T22:15:34.377Z,3.70
2022-07-27T22:18:02.525Z,3.78
2022-07-27T22:20:30.729Z,3.58
2022-07-27T22:22:59.153Z,3.53
2022-07-27T22:25:27.287Z,3.70
2022-07-27T22:27:55.450Z,3.72
2022-07-27T22:30:24.993Z,3.72
2022-07-27T22:32:53.144Z,4.00
2022-07-27T22:35:21.167Z,3.10
2022-07-27T22:37:49.543Z,3.10
2022-07-27T22:40:17.692Z,3.58
2022-07-27T22:42:46.156Z,3.50
2022-07-27T22:45:14.452Z,4.25
2022-07-27T22:47:43.826Z,3.05
2022-07-27T22:50:13.433Z,4.35
2022-07-27T22:52:46.063Z,3.17
2022-07-27T22:55:14.058Z,3.75
2022-07-27T22:57:42.158Z,3.50
2022-07-27T23:00:11.615Z,3.20
2022-07-27T23:02:39.742Z,3.45
2022-07-27T23:05:09.866Z,3.20
2022-07-27T23:07:38.041Z,3.25
2022-07-27T23:10:06.922Z,3.63
2022-07-27T23:12:35.066Z,4.53
2022-07-27T23:15:03.084Z,3.78
2022-07-27T23:17:31.342Z,4.10
2022-07-27T23:19:59.452Z,4.53
2022-07-27T23:22:29.036Z,3.30
2022-07-27T23:24:57.179Z,3.47
2022-07-27T23:27:25.439Z,4.82
2022-07-27T23:29:53.602Z,3.83
2022-07-27T23:32:21.901Z,4.22
2022-07-27T23:34:49.960Z,3.42
2022-07-27T23:37:18.044Z,3.22
2022-07-27T23:39:47.807Z,3.42
2022-07-27T23:42:15.998Z,3.55
2022-07-27T23:44:44.323Z,4.15
2022-07-27T23:47:13.282Z,4.15
2022-07-27T23:49:41.374Z,3.88
2022-07-27T23:52:09.847Z,3.63
2022-07-27T23:54:37.919Z,3.53
2022-07-27T23:57:08.838Z,3.63
2022-07-27T23:59:37.140Z,3.72
